Pelham, NH (03076)

1:48 PM EST on December 18, 2014 (GMT -0500)
Independence Dr | Change Station
CLOSE
Current Station
Personal Weather Station
Location: Pelham, NH
Elevation: 180 ft
Nearby Weather Stations

Elev 180 ft 42.74 °N, 71.34 °W | Updated 2 seconds ago

Overcast
Overcast
41.2 °F
Feels Like 35 °F
N
11.0
Wind Variable Wind from WNW
Gusts 11.0 mph

Today
High -- | Low -- °F
--% Chance of Precip.
Yesterday
High -- | Low -- °F
Precip. -- in
7:10 AM 4:13 PM
Waning Crescent, 13% visible
Pressure 30.51 in
Visibility 10.0 miles
Clouds Mostly Cloudy 3500 ft
Windchill 35 °F
Dew Point 32 °F
Humidity 71%
Rainfall 0.04 in
Snow Depth Not available.
UV 0.0 out of 12
Pollen .10 out of 12
Air Quality Not available.
Flu Activity Not available.
METAR KASH 181751Z 30014G22KT 10SM BKN035 06/M02 A2976 RMK AO2 58007 T00551022 10055 20027 SLP330

More Conditions Fewer Conditions

Pressure 30.51 in
Visibility 10.0 miles
Clouds Mostly Cloudy 3500 ft
Windchill 35 °F
Dew Point 32 °F
Humidity 71%
Rainfall 0.04 in
Snow Depth Not available.
UV 0.0 out of 12
Pollen .10 out of 12
Air Quality Not available.
Flu Activity Not available.
METAR KASH 181751Z 30014G22KT 10SM BKN035 06/M02 A2976 RMK AO2 58007 T00551022 10055 20027 SLP330

More Conditions Fewer Conditions

10-Day Weather Forecast

Almanac

Astronomy

Dec. 18, 2014 Rise Set
Actual Time
Civil Twilight
Nautical Twilight
Astronomical Twilight
Moon
Length of Visible Light
Length of Day
Tomorrow will be .
, % of the Moon is Illuminated

Today's Extremes

State Highs State Lows

Community

WunderPhotos

Upload Photos

1,778,973 photos uploaded!

WunderBlogs® & News

Nearby

Air Quality

  Air Quality AQ Index Pollutant
Not available.

Snow Depth

Station Depth Elevation

Earthquake Activity

City Distance Mag. Time & Date
Minimum magnitude displayed is 2.5.

Coastal Water Temperatures

Place Temperature

Nearby Weather Stations